createdAt,value
2023-03-06T00:01:05.078Z,0.21
2023-03-06T00:02:06.727Z,0.12
2023-03-06T00:03:08.441Z,0.11
2023-03-06T00:04:10.266Z,0.03
2023-03-06T00:05:13.499Z,-0.01
2023-03-06T00:06:15.193Z,-0.09
2023-03-06T00:07:16.924Z,-0.07
2023-03-06T00:08:18.568Z,-0.11
2023-03-06T00:09:20.224Z,-0.10
2023-03-06T00:10:24.827Z,-0.07
2023-03-06T00:11:26.367Z,-0.10
2023-03-06T00:12:28.071Z,-0.06
2023-03-06T00:13:31.172Z,-0.09
2023-03-06T00:14:32.764Z,-0.02
2023-03-06T00:15:34.514Z,-0.03
2023-03-06T00:16:36.196Z,-0.03
2023-03-06T00:17:38.125Z,-0.09
2023-03-06T00:18:39.807Z,-0.08
2023-03-06T00:19:41.499Z,-0.14
2023-03-06T00:20:43.997Z,-0.07
2023-03-06T00:21:45.641Z,0.11
2023-03-06T00:22:47.649Z,0.11
2023-03-06T00:23:49.270Z,0.06
2023-03-06T00:24:53.740Z,0.09
2023-03-06T00:25:55.482Z,0.07
2023-03-06T00:26:57.144Z,-0.01
2023-03-06T00:27:58.784Z,-0.05
2023-03-06T00:29:00.499Z,-0.12
2023-03-06T00:30:02.250Z,-0.07
2023-03-06T00:31:04.024Z,-0.06
2023-03-06T00:32:06.102Z,-0.02
2023-03-06T00:33:08.842Z,0.05
2023-03-06T00:34:10.496Z,0.08
2023-03-06T00:35:12.869Z,0.05
2023-03-06T00:36:14.534Z,0.15
2023-03-06T00:37:16.317Z,0.17
2023-03-06T00:38:18.054Z,0.19
2023-03-06T00:39:19.737Z,0.15
2023-03-06T00:40:21.586Z,0.11
2023-03-06T00:41:23.250Z,0.11
2023-03-06T00:42:25.269Z,0.12
2023-03-06T00:43:26.880Z,0.13
2023-03-06T00:44:28.607Z,0.04
2023-03-06T00:45:30.409Z,0.03
2023-03-06T00:46:32.185Z,-0.05
2023-03-06T00:47:34.045Z,-0.01
2023-03-06T00:48:35.839Z,0.00
2023-03-06T00:49:37.517Z,-0.04
2023-03-06T00:50:39.129Z,-0.08
2023-03-06T00:51:40.761Z,-0.09
2023-03-06T00:52:42.502Z,-0.08
2023-03-06T00:53:44.125Z,-0.17
2023-03-06T00:54:45.703Z,-0.15
2023-03-06T00:55:47.373Z,-0.17
2023-03-06T00:56:48.969Z,-0.20
2023-03-06T00:57:50.532Z,-0.28
2023-03-06T00:58:52.193Z,-0.28
2023-03-06T00:59:53.831Z,-0.28
2023-03-06T01:00:55.777Z,-0.25
2023-03-06T01:01:57.917Z,-0.24
2023-03-06T01:03:00.417Z,-0.23
2023-03-06T01:04:02.140Z,-0.26
2023-03-06T01:05:04.493Z,-0.28
2023-03-06T01:06:06.348Z,-0.26
2023-03-06T01:07:10.491Z,-0.24
2023-03-06T01:08:12.122Z,-0.30
2023-03-06T01:09:13.687Z,-0.31
2023-03-06T01:10:15.398Z,-0.34
2023-03-06T01:11:17.006Z,-0.35
2023-03-06T01:12:20.500Z,-0.35
2023-03-06T01:13:23.822Z,-0.36
2023-03-06T01:14:26.999Z,-0.28
2023-03-06T01:15:28.663Z,-0.31
2023-03-06T01:16:30.378Z,-0.30
2023-03-06T01:17:32.097Z,-0.30
2023-03-06T01:18:33.696Z,-0.22
2023-03-06T01:19:36.422Z,-0.30
2023-03-06T01:20:38.060Z,-0.26
2023-03-06T01:21:39.845Z,-0.38
2023-03-06T01:22:41.967Z,-0.30
2023-03-06T01:23:43.538Z,-0.32
2023-03-06T01:24:45.127Z,-0.36
2023-03-06T01:25:46.823Z,-0.37
2023-03-06T01:26:48.487Z,-0.36
2023-03-06T01:27:50.125Z,-0.43
2023-03-06T01:28:51.738Z,-0.47
2023-03-06T01:29:53.374Z,-0.45
2023-03-06T01:30:55.041Z,-0.50
2023-03-06T01:31:56.726Z,-0.48
2023-03-06T01:32:59.222Z,-0.49
2023-03-06T01:34:00.873Z,-0.46
2023-03-06T01:35:03.858Z,-0.50
2023-03-06T01:36:07.571Z,-0.38
2023-03-06T01:37:09.200Z,-0.44
2023-03-06T01:38:10.997Z,-0.48
2023-03-06T01:39:12.615Z,-0.43
2023-03-06T01:40:14.408Z,-0.49
2023-03-06T01:41:16.112Z,-0.57
2023-03-06T01:42:17.662Z,-0.50
2023-03-06T01:43:28.299Z,-0.50
2023-03-06T01:44:30.049Z,-0.50
2023-03-06T01:45:31.601Z,-0.47
2023-03-06T01:46:41.846Z,-0.51
2023-03-06T01:47:44.783Z,-0.50
2023-03-06T01:48:47.359Z,-0.59
2023-03-06T01:49:49.020Z,-0.57
2023-03-06T01:50:51.668Z,-0.56
2023-03-06T01:51:55.993Z,-0.58
2023-03-06T01:52:59.464Z,-0.56
2023-03-06T01:54:02.600Z,-0.58
2023-03-06T01:55:14.011Z,-0.54
2023-03-06T01:56:16.067Z,-0.51
2023-03-06T01:57:20.907Z,-0.47
2023-03-06T01:58:22.649Z,-0.52
2023-03-06T01:59:26.784Z,-0.53
2023-03-06T02:00:29.131Z,-0.57
2023-03-06T02:01:32.171Z,-0.59
2023-03-06T02:02:34.461Z,-0.60
2023-03-06T02:03:36.609Z,-0.63
2023-03-06T02:04:45.404Z,-0.63
2023-03-06T02:05:48.422Z,-0.65
2023-03-06T02:06:50.104Z,-0.66
2023-03-06T02:07:52.346Z,-0.64
2023-03-06T02:08:54.456Z,-0.65
2023-03-06T02:09:56.259Z,-0.67
2023-03-06T02:11:07.224Z,-0.65
2023-03-06T02:12:12.959Z,-0.72
2023-03-06T02:13:15.107Z,-0.74
2023-03-06T02:14:18.010Z,-0.81
2023-03-06T02:15:23.095Z,-0.80
2023-03-06T02:16:27.524Z,-0.82
2023-03-06T02:17:30.296Z,-0.80
2023-03-06T02:18:35.739Z,-0.76
2023-03-06T02:19:37.879Z,-0.74
2023-03-06T02:20:45.278Z,-0.65
2023-03-06T02:21:47.139Z,-0.64
2023-03-06T02:22:58.784Z,-0.66
2023-03-06T02:24:23.394Z,-0.66
2023-03-06T02:25:35.165Z,-0.77
2023-03-06T02:26:38.645Z,-0.79
2023-03-06T02:27:41.977Z,-0.81
2023-03-06T02:28:44.254Z,-0.83
2023-03-06T02:29:47.006Z,-0.84
2023-03-06T02:30:55.521Z,-0.82
2023-03-06T02:31:57.717Z,-0.81
2023-03-06T02:33:00.119Z,-0.80
2023-03-06T02:34:08.393Z,-0.83
2023-03-06T02:35:19.460Z,-0.91
2023-03-06T02:36:21.607Z,-0.86
2023-03-06T02:37:24.942Z,-0.81
2023-03-06T02:38:48.454Z,-0.77
2023-03-06T02:39:54.990Z,-0.72
2023-03-06T02:40:59.119Z,-0.71
2023-03-06T02:42:05.152Z,-0.69
2023-03-06T02:43:07.108Z,-0.67
2023-03-06T02:44:09.087Z,-0.67
2023-03-06T02:45:12.497Z,-0.70
2023-03-06T02:46:16.079Z,-0.70
2023-03-06T02:47:17.827Z,-0.67
2023-03-06T02:48:20.345Z,-0.72
2023-03-06T02:49:22.173Z,-0.78
2023-03-06T02:50:24.762Z,-0.78
2023-03-06T02:51:26.288Z,-0.78
2023-03-06T02:52:27.973Z,-0.82
2023-03-06T02:53:31.245Z,-0.80
2023-03-06T02:54:34.928Z,-0.78
2023-03-06T02:55:37.338Z,-0.75
2023-03-06T02:56:39.357Z,-0.78
2023-03-06T02:57:42.203Z,-0.76
2023-03-06T02:58:44.170Z,-0.77
2023-03-06T02:59:46.075Z,-0.77
2023-03-06T03:00:49.462Z,-0.78
2023-03-06T03:01:51.642Z,-0.78
2023-03-06T03:02:54.276Z,-0.76
2023-03-06T03:03:56.284Z,-0.72
2023-03-06T03:04:58.327Z,-0.69
2023-03-06T03:06:01.283Z,-0.61
2023-03-06T03:07:08.597Z,-0.58
2023-03-06T03:08:11.353Z,-0.55
2023-03-06T03:09:13.217Z,-0.51
2023-03-06T03:10:15.523Z,-0.51
2023-03-06T03:11:17.414Z,-0.52
2023-03-06T03:12:19.919Z,-0.50
2023-03-06T03:13:22.084Z,-0.51
2023-03-06T03:14:24.882Z,-0.49
2023-03-06T03:15:26.979Z,-0.45
2023-03-06T03:16:29.832Z,-0.46
2023-03-06T03:17:36.408Z,-0.49
2023-03-06T03:18:38.151Z,-0.51
2023-03-06T03:19:40.017Z,-0.48
2023-03-06T03:20:43.486Z,-0.49
2023-03-06T03:21:45.959Z,-0.51
2023-03-06T03:22:49.210Z,-0.47
2023-03-06T03:23:51.246Z,-0.49
2023-03-06T03:24:53.099Z,-0.53
2023-03-06T03:25:57.337Z,-0.49
2023-03-06T03:26:59.220Z,-0.51
2023-03-06T03:28:01.577Z,-0.42
2023-03-06T03:29:05.226Z,-0.41
2023-03-06T03:30:08.240Z,-0.35
2023-03-06T03:31:11.777Z,-0.34
2023-03-06T03:32:13.928Z,-0.32
2023-03-06T03:33:19.874Z,-0.20
2023-03-06T03:34:21.685Z,-0.18
2023-03-06T03:35:23.806Z,-0.20
2023-03-06T03:36:27.940Z,-0.16
2023-03-06T03:37:30.896Z,-0.11
2023-03-06T03:38:34.324Z,-0.07
2023-03-06T03:39:36.646Z,-0.02
2023-03-06T03:40:39.462Z,-0.09
2023-03-06T03:41:41.975Z,-0.16
2023-03-06T03:42:46.252Z,-0.20
2023-03-06T03:43:48.793Z,-0.22
2023-03-06T03:44:50.715Z,-0.20
2023-03-06T03:45:56.156Z,-0.22
2023-03-06T03:46:58.753Z,-0.23
2023-03-06T03:48:01.105Z,-0.25
2023-03-06T03:49:04.266Z,-0.26
2023-03-06T03:50:08.013Z,-0.26
2023-03-06T03:51:13.077Z,-0.30
2023-03-06T03:52:19.854Z,-0.23
2023-03-06T03:53:22.100Z,-0.23
2023-03-06T03:54:24.089Z,-0.22
2023-03-06T03:55:31.215Z,-0.20
2023-03-06T03:56:34.208Z,-0.22
2023-03-06T03:57:43.313Z,-0.17
2023-03-06T03:58:46.321Z,-0.10
2023-03-06T03:59:48.083Z,-0.08
2023-03-06T04:01:00.885Z,-0.04
2023-03-06T04:02:05.011Z,0.04
2023-03-06T04:03:13.667Z,0.12
2023-03-06T04:04:18.986Z,0.12
2023-03-06T04:05:21.242Z,0.14
2023-03-06T04:06:24.471Z,0.13
2023-03-06T04:07:27.624Z,0.09
2023-03-06T04:08:29.860Z,0.06
2023-03-06T04:09:32.119Z,0.03
2023-03-06T04:10:34.454Z,-0.06
2023-03-06T04:11:39.033Z,-0.07
2023-03-06T04:12:41.276Z,-0.15
2023-03-06T04:13:45.558Z,-0.15
2023-03-06T04:14:47.619Z,-0.20
2023-03-06T04:15:52.657Z,-0.15
2023-03-06T04:16:56.354Z,-0.14
2023-03-06T04:17:58.188Z,-0.18
2023-03-06T04:19:03.935Z,-0.21
2023-03-06T04:20:07.733Z,-0.26
2023-03-06T04:21:09.919Z,-0.26
2023-03-06T04:22:12.052Z,-0.29
2023-03-06T04:23:15.734Z,-0.26
2023-03-06T04:24:17.985Z,-0.25
2023-03-06T04:25:20.653Z,-0.29
2023-03-06T04:26:22.501Z,-0.30
2023-03-06T04:27:25.014Z,-0.23
2023-03-06T04:28:29.436Z,-0.24
2023-03-06T04:29:33.590Z,-0.15
2023-03-06T04:30:36.749Z,-0.01
2023-03-06T04:31:38.861Z,0.16
2023-03-06T04:32:41.013Z,0.17
2023-03-06T04:33:43.966Z,0.15
2023-03-06T04:34:46.037Z,0.13
2023-03-06T04:35:48.119Z,0.11
2023-03-06T04:36:55.280Z,0.16
2023-03-06T04:37:58.108Z,0.11
2023-03-06T04:39:03.293Z,0.12
2023-03-06T04:40:09.883Z,0.08
2023-03-06T04:41:12.778Z,0.08
2023-03-06T04:42:15.034Z,0.06
2023-03-06T04:43:17.521Z,0.19
2023-03-06T04:44:19.777Z,0.10
2023-03-06T04:45:22.452Z,0.02
2023-03-06T04:46:25.708Z,-0.03
2023-03-06T04:47:27.887Z,0.04
2023-03-06T04:48:30.115Z,0.07
2023-03-06T04:49:32.383Z,0.06
2023-03-06T04:50:34.747Z,0.09
2023-03-06T04:51:37.087Z,0.11
2023-03-06T04:52:40.884Z,0.21
2023-03-06T04:53:43.047Z,0.18
2023-03-06T04:54:46.547Z,0.15
2023-03-06T04:55:48.897Z,0.18
2023-03-06T04:56:50.843Z,0.10
2023-03-06T04:57:53.510Z,0.06
2023-03-06T04:58:55.891Z,0.03
2023-03-06T04:59:59.505Z,0.13
2023-03-06T05:01:01.376Z,0.19
2023-03-06T05:02:03.156Z,0.18
2023-03-06T05:03:06.480Z,0.19
2023-03-06T05:04:08.417Z,0.11
2023-03-06T05:05:13.169Z,0.12
2023-03-06T05:06:15.471Z,0.09
2023-03-06T05:07:17.941Z,0.13
2023-03-06T05:08:21.237Z,0.03
2023-03-06T05:09:23.683Z,-0.04
2023-03-06T05:10:25.664Z,0.09
2023-03-06T05:11:27.900Z,0.06
2023-03-06T05:12:30.016Z,0.07
2023-03-06T05:13:31.796Z,0.13
2023-03-06T05:14:34.491Z,0.08
2023-03-06T05:15:36.950Z,0.05
2023-03-06T05:16:40.225Z,0.13
2023-03-06T05:17:42.697Z,0.08
2023-03-06T05:18:44.988Z,0.03
2023-03-06T05:19:46.909Z,-0.04
2023-03-06T05:20:49.149Z,0.02
2023-03-06T05:21:51.758Z,0.08
2023-03-06T05:22:54.178Z,0.22
2023-03-06T05:23:58.451Z,0.08
2023-03-06T05:25:00.676Z,-0.03
2023-03-06T05:26:07.750Z,0.14
2023-03-06T05:27:09.798Z,0.13
2023-03-06T05:28:12.336Z,0.16
2023-03-06T05:29:14.906Z,0.14
2023-03-06T05:30:16.974Z,0.21
2023-03-06T05:31:19.413Z,0.27
2023-03-06T05:32:22.143Z,0.13
2023-03-06T05:33:24.009Z,0.20
2023-03-06T05:34:26.218Z,0.24
2023-03-06T05:35:29.183Z,0.31
2023-03-06T05:36:31.048Z,0.38
2023-03-06T05:37:33.212Z,0.35
2023-03-06T05:38:36.709Z,0.19
2023-03-06T05:39:38.934Z,0.18
2023-03-06T05:40:41.939Z,0.23
2023-03-06T05:41:45.082Z,0.20
2023-03-06T05:42:46.974Z,0.10
2023-03-06T05:43:48.787Z,0.05
2023-03-06T05:44:51.147Z,-0.03
2023-03-06T05:46:04.470Z,0.10
2023-03-06T05:47:06.377Z,0.22
2023-03-06T05:48:08.521Z,0.21
2023-03-06T05:49:11.489Z,0.24
2023-03-06T05:50:14.139Z,0.20
2023-03-06T05:51:15.871Z,0.22
2023-03-06T05:52:18.331Z,0.14
2023-03-06T05:53:21.303Z,0.19
2023-03-06T05:54:24.837Z,0.25
2023-03-06T05:55:27.107Z,0.28
2023-03-06T05:56:30.281Z,0.42
2023-03-06T05:57:32.284Z,0.48
2023-03-06T05:58:34.547Z,0.46
2023-03-06T05:59:36.862Z,0.44
2023-03-06T06:00:38.929Z,0.49
2023-03-06T06:01:41.448Z,0.45
2023-03-06T06:02:44.074Z,0.41
2023-03-06T06:03:46.958Z,0.42
2023-03-06T06:04:49.704Z,0.37
2023-03-06T06:05:51.960Z,0.33
2023-03-06T06:06:59.817Z,0.32
2023-03-06T06:08:01.748Z,0.36
2023-03-06T06:09:03.896Z,0.30
2023-03-06T06:10:07.487Z,0.25
2023-03-06T06:11:10.993Z,0.35
2023-03-06T06:12:14.579Z,0.28
2023-03-06T06:13:16.450Z,0.23
2023-03-06T06:14:18.312Z,0.26
2023-03-06T06:15:20.540Z,0.25
2023-03-06T06:16:22.633Z,0.22
2023-03-06T06:17:24.697Z,0.27
2023-03-06T06:18:26.456Z,0.28
2023-03-06T06:19:31.953Z,0.28
2023-03-06T06:20:33.665Z,0.29
2023-03-06T06:21:36.529Z,0.25
2023-03-06T06:22:38.763Z,0.26
2023-03-06T06:23:41.418Z,0.25
2023-03-06T06:24:43.001Z,0.26
2023-03-06T06:25:45.157Z,0.28
2023-03-06T06:26:47.315Z,0.28
2023-03-06T06:27:49.208Z,0.27
2023-03-06T06:28:51.341Z,0.24
2023-03-06T06:29:54.232Z,0.23
2023-03-06T06:30:56.602Z,0.21
2023-03-06T06:31:59.396Z,0.23
2023-03-06T06:33:02.056Z,0.25
2023-03-06T06:34:04.971Z,0.25
2023-03-06T06:35:09.694Z,0.25
2023-03-06T06:36:21.691Z,0.21
2023-03-06T06:37:25.164Z,0.27
2023-03-06T06:38:27.115Z,0.25
2023-03-06T06:39:30.152Z,0.27
2023-03-06T06:40:32.254Z,0.29
2023-03-06T06:42:56.895Z,0.36
2023-03-06T06:43:59.829Z,0.42
2023-03-06T06:45:01.905Z,0.48
2023-03-06T06:46:29.748Z,0.50
2023-03-06T06:47:27.603Z,0.51
2023-03-06T06:48:29.697Z,0.41
2023-03-06T06:49:32.005Z,0.44
2023-03-06T06:50:34.105Z,0.53
2023-03-06T06:51:37.882Z,0.54
2023-03-06T06:52:40.035Z,0.50
2023-03-06T06:53:42.160Z,0.46
2023-03-06T06:54:44.318Z,0.48
2023-03-06T06:55:46.491Z,0.50
2023-03-06T06:56:48.735Z,0.55
2023-03-06T06:57:50.536Z,0.54
2023-03-06T06:58:55.902Z,0.47
2023-03-06T06:59:59.643Z,0.65
2023-03-06T07:01:09.496Z,0.60
2023-03-06T07:02:16.316Z,0.56
2023-03-06T07:03:18.517Z,0.47
2023-03-06T07:04:20.898Z,0.50
2023-03-06T07:05:23.001Z,0.43
2023-03-06T07:06:25.394Z,0.49
2023-03-06T07:07:31.463Z,0.40
2023-03-06T07:08:34.071Z,0.46
2023-03-06T07:09:35.961Z,0.45
2023-03-06T07:10:39.620Z,0.47
2023-03-06T07:11:43.208Z,0.52
2023-03-06T07:12:45.177Z,0.43
2023-03-06T07:13:50.992Z,0.36
2023-03-06T07:14:53.422Z,0.34
2023-03-06T07:15:55.239Z,0.37
2023-03-06T07:16:57.306Z,0.45
2023-03-06T07:18:00.965Z,0.40
2023-03-06T07:19:03.276Z,0.44
2023-03-06T07:20:07.598Z,0.40
2023-03-06T07:21:09.917Z,0.32
2023-03-06T07:22:12.574Z,0.30
2023-03-06T07:23:14.411Z,0.39
2023-03-06T07:24:16.557Z,0.36
2023-03-06T07:25:19.006Z,0.41
2023-03-06T07:26:21.178Z,0.34
2023-03-06T07:27:24.031Z,0.42
2023-03-06T07:28:26.664Z,0.46
2023-03-06T07:29:28.885Z,0.40
2023-03-06T07:30:31.210Z,0.47
2023-03-06T07:31:34.074Z,0.40
2023-03-06T07:32:36.445Z,0.45
2023-03-06T07:33:39.963Z,0.46
2023-03-06T07:34:43.457Z,0.45
2023-03-06T07:35:46.065Z,0.46
2023-03-06T07:36:48.273Z,0.54
2023-03-06T07:37:51.286Z,0.48
2023-03-06T07:38:54.133Z,0.49
2023-03-06T07:39:56.109Z,0.49
2023-03-06T07:40:58.678Z,0.52
2023-03-06T07:42:00.375Z,0.46
2023-03-06T07:43:18.272Z,0.43
2023-03-06T07:44:28.802Z,0.36
2023-03-06T07:45:30.721Z,0.35
2023-03-06T07:46:32.548Z,0.33
2023-03-06T07:47:34.785Z,0.34
2023-03-06T07:48:38.840Z,0.52
2023-03-06T07:49:40.655Z,0.40
2023-03-06T07:50:43.035Z,0.45
2023-03-06T07:51:45.241Z,0.53
2023-03-06T07:52:48.552Z,0.47
2023-03-06T07:53:50.559Z,0.51
2023-03-06T07:54:53.019Z,0.52
2023-03-06T07:55:54.849Z,0.54
2023-03-06T07:56:57.421Z,0.56
2023-03-06T07:57:59.581Z,0.57
2023-03-06T07:59:01.836Z,0.55
2023-03-06T08:00:11.313Z,0.58
2023-03-06T08:01:20.876Z,0.60
2023-03-06T08:02:22.604Z,0.63
2023-03-06T08:03:24.867Z,0.72
2023-03-06T08:04:28.985Z,0.73
2023-03-06T08:05:31.328Z,0.72
2023-03-06T08:06:33.576Z,0.73
2023-03-06T08:07:35.990Z,0.78
2023-03-06T08:08:41.214Z,0.87
2023-03-06T08:09:43.716Z,0.94
2023-03-06T08:10:49.479Z,0.83
2023-03-06T08:11:51.317Z,0.76
2023-03-06T08:12:54.036Z,0.85
2023-03-06T08:13:57.636Z,0.86
2023-03-06T08:14:59.589Z,0.79
2023-03-06T08:16:02.270Z,0.79
2023-03-06T08:17:04.489Z,0.76
2023-03-06T08:18:06.662Z,0.85
2023-03-06T08:19:08.757Z,0.87
2023-03-06T08:20:11.349Z,0.85
2023-03-06T08:21:21.290Z,0.89
2023-03-06T08:22:25.022Z,0.82
2023-03-06T08:23:27.496Z,0.80
2023-03-06T08:24:29.632Z,0.85
2023-03-06T08:25:32.090Z,0.87
2023-03-06T08:26:34.305Z,0.81
2023-03-06T08:27:36.479Z,0.88
2023-03-06T08:28:40.323Z,0.87
2023-03-06T08:29:42.066Z,0.89
2023-03-06T08:30:44.256Z,0.87
2023-03-06T08:31:47.603Z,0.88
2023-03-06T08:32:49.756Z,0.90
2023-03-06T08:33:52.630Z,0.87
2023-03-06T08:34:54.790Z,0.94
2023-03-06T08:35:57.515Z,1.01
2023-03-06T08:36:59.617Z,0.91
2023-03-06T08:38:01.352Z,0.91
2023-03-06T08:39:05.102Z,0.91
2023-03-06T08:40:09.548Z,0.87
2023-03-06T08:41:11.642Z,0.98
2023-03-06T08:42:14.035Z,0.96
2023-03-06T08:43:16.257Z,1.01
2023-03-06T08:44:19.026Z,1.03
2023-03-06T08:45:21.152Z,1.06
2023-03-06T08:46:25.530Z,1.03
2023-03-06T08:47:27.764Z,1.06
2023-03-06T08:48:30.013Z,1.05
2023-03-06T08:49:31.807Z,1.08
2023-03-06T08:50:33.966Z,1.25
2023-03-06T08:51:36.330Z,1.28
2023-03-06T08:52:38.964Z,1.29
2023-03-06T08:53:43.593Z,1.33
2023-03-06T08:54:46.728Z,1.32
2023-03-06T08:55:49.092Z,1.39
2023-03-06T08:56:51.332Z,1.36
2023-03-06T08:57:53.393Z,1.41
2023-03-06T08:58:57.087Z,1.42
2023-03-06T08:59:59.705Z,1.40
2023-03-06T09:01:04.024Z,1.45
2023-03-06T09:02:08.001Z,1.44
2023-03-06T09:03:11.182Z,1.44
2023-03-06T09:04:13.315Z,1.40
2023-03-06T09:05:15.494Z,1.47
2023-03-06T09:06:17.416Z,1.54
2023-03-06T09:07:19.689Z,1.55
2023-03-06T09:08:21.576Z,1.61
2023-03-06T09:09:24.204Z,1.66
2023-03-06T09:10:28.425Z,1.75
2023-03-06T09:11:31.003Z,1.86
2023-03-06T09:12:47.342Z,1.92
2023-03-06T09:13:51.757Z,2.04
2023-03-06T09:14:53.606Z,2.08
2023-03-06T09:15:55.769Z,2.20
2023-03-06T09:16:57.956Z,2.21
2023-03-06T09:18:00.873Z,2.29
2023-03-06T09:19:03.207Z,2.29
2023-03-06T09:20:06.289Z,2.32
2023-03-06T09:21:09.324Z,2.36
2023-03-06T09:22:11.362Z,2.44
2023-03-06T09:23:14.613Z,2.47
2023-03-06T09:24:17.487Z,2.48
2023-03-06T09:25:22.757Z,2.51
2023-03-06T09:26:39.509Z,2.54
2023-03-06T09:27:47.944Z,2.49
2023-03-06T09:28:51.972Z,2.42
2023-03-06T09:29:54.954Z,2.50
2023-03-06T09:30:56.927Z,2.52
2023-03-06T09:31:59.050Z,2.57
2023-03-06T09:33:01.721Z,2.57
2023-03-06T09:34:04.704Z,2.48
2023-03-06T09:35:07.266Z,2.53
2023-03-06T09:36:10.598Z,2.67
2023-03-06T09:37:12.480Z,2.58
2023-03-06T09:38:15.006Z,2.50
2023-03-06T09:39:16.944Z,2.46
2023-03-06T09:40:31.771Z,2.28
2023-03-06T09:41:37.090Z,2.30
2023-03-06T09:42:39.034Z,2.23
2023-03-06T09:43:45.406Z,2.24
2023-03-06T09:45:06.071Z,2.36
2023-03-06T09:46:24.006Z,2.36
2023-03-06T09:47:38.324Z,2.32
2023-03-06T09:49:01.871Z,2.34
2023-03-06T09:50:21.217Z,2.27
2023-03-06T09:51:31.654Z,2.24
2023-03-06T09:53:03.146Z,2.27
2023-03-06T09:54:13.471Z,2.27
2023-03-06T09:55:17.719Z,2.22
2023-03-06T09:56:24.329Z,2.23
2023-03-06T09:57:31.206Z,2.21
2023-03-06T09:58:38.474Z,2.33
2023-03-06T09:59:45.794Z,2.27
2023-03-06T10:01:01.379Z,2.40
2023-03-06T10:02:15.461Z,2.32
2023-03-06T10:03:27.856Z,2.36
2023-03-06T10:04:37.405Z,2.41
2023-03-06T10:05:50.004Z,2.50
2023-03-06T10:06:57.458Z,2.50
2023-03-06T10:08:06.040Z,2.49
2023-03-06T10:09:15.495Z,2.48
2023-03-06T10:10:23.949Z,2.51
2023-03-06T10:11:35.293Z,2.33
2023-03-06T10:12:42.708Z,2.42
2023-03-06T10:13:54.793Z,2.37
2023-03-06T10:15:06.211Z,2.38
2023-03-06T10:16:31.142Z,2.23
2023-03-06T10:17:38.599Z,2.33
2023-03-06T10:18:40.589Z,2.28
2023-03-06T10:19:42.808Z,2.32
2023-03-06T10:21:19.296Z,2.32
2023-03-06T10:23:00.845Z,2.27
2023-03-06T10:24:28.762Z,2.38
2023-03-06T10:25:38.937Z,2.35
2023-03-06T10:26:49.869Z,2.35
2023-03-06T10:27:58.614Z,2.37
2023-03-06T10:29:00.381Z,2.28
2023-03-06T10:30:50.021Z,2.36
2023-03-06T10:31:58.758Z,2.42
2023-03-06T10:33:16.386Z,2.57
2023-03-06T10:34:29.904Z,2.41
2023-03-06T10:35:50.271Z,2.50
2023-03-06T10:36:52.192Z,2.43
2023-03-06T10:38:16.269Z,2.18
2023-03-06T10:39:21.436Z,2.11
2023-03-06T10:40:25.635Z,2.11
2023-03-06T10:41:30.668Z,2.26
2023-03-06T10:42:32.457Z,2.23
2023-03-06T10:43:36.584Z,2.23
2023-03-06T10:44:39.021Z,2.05
2023-03-06T10:45:52.541Z,2.13
2023-03-06T10:46:54.740Z,2.03
2023-03-06T10:48:12.337Z,2.06
2023-03-06T10:49:35.448Z,2.14
2023-03-06T10:50:37.556Z,2.17
2023-03-06T10:51:40.204Z,2.20
2023-03-06T10:52:42.847Z,2.13
2023-03-06T10:53:53.581Z,2.08
2023-03-06T10:55:15.629Z,1.94
2023-03-06T10:56:32.063Z,2.09
2023-03-06T10:57:38.153Z,2.15
2023-03-06T10:58:44.812Z,2.13
2023-03-06T11:00:03.955Z,2.01
2023-03-06T11:01:11.072Z,2.00
2023-03-06T11:02:21.814Z,2.16
2023-03-06T11:03:24.664Z,2.08
2023-03-06T11:04:31.961Z,2.08
2023-03-06T11:05:33.780Z,2.18
2023-03-06T11:06:37.292Z,2.19
2023-03-06T11:07:55.924Z,2.10
2023-03-06T11:09:24.363Z,2.03
2023-03-06T11:10:27.579Z,1.97
2023-03-06T11:11:37.479Z,1.98
2023-03-06T11:12:42.170Z,1.94
2023-03-06T11:13:44.637Z,1.87
2023-03-06T11:14:46.856Z,1.86
2023-03-06T11:16:05.545Z,1.80
2023-03-06T11:17:27.850Z,1.78
2023-03-06T11:18:38.169Z,1.85
2023-03-06T11:19:41.450Z,1.79
2023-03-06T11:20:53.109Z,1.87
2023-03-06T11:22:00.586Z,1.82
2023-03-06T11:23:35.572Z,1.83
2023-03-06T11:24:44.406Z,2.08
2023-03-06T11:26:15.943Z,2.12
2023-03-06T11:27:22.810Z,2.09
2023-03-06T11:28:40.113Z,2.13
2023-03-06T11:29:50.659Z,2.25
2023-03-06T11:30:56.320Z,2.21
2023-03-06T11:32:38.453Z,2.32
2023-03-06T11:33:47.486Z,2.49
2023-03-06T11:35:03.807Z,2.58
2023-03-06T11:36:31.996Z,2.71
2023-03-06T11:37:55.623Z,2.74
2023-03-06T11:38:57.797Z,2.80
2023-03-06T11:40:11.465Z,2.67
2023-03-06T11:41:19.264Z,2.64
2023-03-06T11:42:29.088Z,2.62
2023-03-06T11:44:03.611Z,2.61
2023-03-06T11:45:10.624Z,2.71
2023-03-06T11:46:20.180Z,2.74
2023-03-06T11:47:42.955Z,2.52
2023-03-06T11:49:02.433Z,2.51
2023-03-06T11:50:22.052Z,2.41
2023-03-06T11:51:27.682Z,2.47
2023-03-06T11:52:55.590Z,2.42
2023-03-06T11:54:00.328Z,2.53
2023-03-06T11:55:02.315Z,2.51
2023-03-06T11:56:19.197Z,2.60
2023-03-06T11:57:25.871Z,2.66
2023-03-06T11:58:42.621Z,2.69
2023-03-06T11:59:51.296Z,2.69
2023-03-06T12:00:53.058Z,2.85
2023-03-06T12:02:06.829Z,2.87
2023-03-06T12:03:21.898Z,3.02
2023-03-06T12:04:37.677Z,3.28
2023-03-06T12:06:12.974Z,3.56
2023-03-06T12:07:34.216Z,3.90
2023-03-06T12:09:02.000Z,4.06
2023-03-06T12:10:42.538Z,4.19
2023-03-06T12:11:50.432Z,4.30
2023-03-06T12:12:56.950Z,4.40
2023-03-06T12:14:13.854Z,4.58
2023-03-06T12:15:37.494Z,4.58
2023-03-06T12:17:17.044Z,4.76
2023-03-06T12:18:53.896Z,4.79
2023-03-06T12:20:20.161Z,4.97
2023-03-06T12:21:41.673Z,5.13
2023-03-06T12:22:57.779Z,5.26
2023-03-06T12:24:11.583Z,5.07
2023-03-06T12:25:33.402Z,5.07
2023-03-06T12:26:53.581Z,4.92
2023-03-06T12:28:29.480Z,4.60
2023-03-06T12:29:54.016Z,4.47
2023-03-06T12:31:34.676Z,4.65
2023-03-06T12:32:56.997Z,4.92
2023-03-06T12:34:01.716Z,4.86
2023-03-06T12:35:57.783Z,5.02
2023-03-06T12:37:14.652Z,5.19
2023-03-06T12:38:41.550Z,5.06
2023-03-06T12:39:49.466Z,5.29
2023-03-06T12:41:21.704Z,5.28
2023-03-06T12:42:23.912Z,5.12
2023-03-06T12:43:44.388Z,4.97
2023-03-06T12:44:56.053Z,5.12
2023-03-06T12:46:02.691Z,5.06
2023-03-06T12:47:10.171Z,4.63
2023-03-06T12:48:18.089Z,4.59
2023-03-06T12:49:33.291Z,4.58
2023-03-06T12:50:39.117Z,4.64
2023-03-06T12:51:41.697Z,4.73
2023-03-06T12:52:44.128Z,4.83
2023-03-06T12:53:46.391Z,4.67
2023-03-06T12:54:48.551Z,4.81
2023-03-06T12:55:51.121Z,4.73
2023-03-06T12:56:53.270Z,4.59
2023-03-06T12:57:55.213Z,4.63
2023-03-06T12:59:02.308Z,4.53
2023-03-06T13:00:04.853Z,4.57
2023-03-06T13:01:12.762Z,4.55
2023-03-06T13:02:23.687Z,4.69
2023-03-06T13:03:29.981Z,4.62
2023-03-06T13:04:54.798Z,4.60
2023-03-06T13:06:14.224Z,4.50
2023-03-06T13:07:29.529Z,4.59
2023-03-06T13:09:12.796Z,4.53
2023-03-06T13:10:41.018Z,4.53
2023-03-06T13:11:58.692Z,4.56
2023-03-06T13:13:05.651Z,4.50
2023-03-06T13:14:31.260Z,4.55
2023-03-06T13:15:43.173Z,4.44
2023-03-06T13:16:45.465Z,4.51
2023-03-06T13:17:47.462Z,4.42
2023-03-06T13:18:53.814Z,4.40
2023-03-06T13:20:14.217Z,4.37
2023-03-06T13:21:45.329Z,4.39
2023-03-06T13:22:48.436Z,4.50
2023-03-06T13:23:51.969Z,4.60
2023-03-06T13:25:19.058Z,4.49
2023-03-06T13:26:26.749Z,4.60
2023-03-06T13:27:47.932Z,4.58
2023-03-06T13:28:52.443Z,4.58
2023-03-06T13:30:21.248Z,4.57
2023-03-06T13:31:28.401Z,4.59
2023-03-06T13:32:32.601Z,4.55
2023-03-06T13:33:38.966Z,4.56
2023-03-06T13:34:42.066Z,4.58
2023-03-06T13:35:55.397Z,4.60
2023-03-06T13:37:25.321Z,4.47
2023-03-06T13:38:41.954Z,4.45
2023-03-06T13:39:52.731Z,4.43
2023-03-06T13:41:23.649Z,4.46
2023-03-06T13:42:36.602Z,4.39
2023-03-06T13:43:44.417Z,4.47
2023-03-06T13:44:49.507Z,4.44
2023-03-06T13:45:51.933Z,4.33
2023-03-06T13:47:01.153Z,4.21
2023-03-06T13:48:27.331Z,4.37
2023-03-06T13:49:25.749Z,4.51
2023-03-06T13:50:43.695Z,4.42
2023-03-06T13:52:05.203Z,4.40
2023-03-06T13:53:45.692Z,4.37
2023-03-06T13:54:56.384Z,4.30
2023-03-06T13:56:19.055Z,4.33
2023-03-06T13:57:47.506Z,4.25
2023-03-06T13:59:15.709Z,4.31
2023-03-06T14:00:55.405Z,4.31
2023-03-06T14:02:10.423Z,4.27
2023-03-06T14:03:38.859Z,4.20
2023-03-06T14:04:46.741Z,4.29
2023-03-06T14:05:52.987Z,4.28
2023-03-06T14:07:07.076Z,4.27
2023-03-06T14:08:17.329Z,4.33
2023-03-06T14:09:47.266Z,4.26
2023-03-06T14:10:59.772Z,4.40
2023-03-06T14:12:25.499Z,4.44
2023-03-06T14:13:45.345Z,4.36
2023-03-06T14:14:52.826Z,4.47
2023-03-06T14:15:55.909Z,4.50
2023-03-06T14:16:58.990Z,4.40
2023-03-06T14:18:03.660Z,4.53
2023-03-06T14:19:08.778Z,4.46
2023-03-06T14:20:16.475Z,4.45
2023-03-06T14:21:28.212Z,4.50
2023-03-06T14:22:30.460Z,4.48
2023-03-06T14:23:36.004Z,4.52
2023-03-06T14:24:42.566Z,4.34
2023-03-06T14:25:45.669Z,4.47
2023-03-06T14:26:50.034Z,4.50
2023-03-06T14:27:54.976Z,4.39
2023-03-06T14:29:00.816Z,4.38
2023-03-06T14:30:12.898Z,4.33
2023-03-06T14:31:20.458Z,4.27
2023-03-06T14:32:23.161Z,4.20
2023-03-06T14:33:32.640Z,4.26
2023-03-06T14:34:41.136Z,4.16
2023-03-06T14:35:51.901Z,4.21
2023-03-06T14:37:05.709Z,4.12